sensor_id;sensor_type;location;lat;lon;timestamp;P1;durP1;ratioP1;P2;durP2;ratioP2
830;SDS011;397;50.564;7.272;2023-02-28T00:01:32;5.00;;;2.60;;
830;SDS011;397;50.564;7.272;2023-02-28T00:04:00;4.20;;;2.23;;
830;SDS011;397;50.564;7.272;2023-02-28T00:06:28;3.20;;;2.23;;
830;SDS011;397;50.564;7.272;2023-02-28T00:08:56;4.77;;;2.17;;
830;SDS011;397;50.564;7.272;2023-02-28T00:11:23;4.10;;;2.40;;
830;SDS011;397;50.564;7.272;2023-02-28T00:13:51;6.13;;;3.03;;
830;SDS011;397;50.564;7.272;2023-02-28T00:16:20;7.20;;;2.40;;
830;SDS011;397;50.564;7.272;2023-02-28T00:18:48;4.27;;;2.50;;
830;SDS011;397;50.564;7.272;2023-02-28T00:21:17;3.97;;;2.50;;
830;SDS011;397;50.564;7.272;2023-02-28T00:23:45;7.37;;;2.40;;
830;SDS011;397;50.564;7.272;2023-02-28T00:26:13;6.73;;;3.20;;
830;SDS011;397;50.564;7.272;2023-02-28T00:28:41;3.30;;;2.30;;
830;SDS011;397;50.564;7.272;2023-02-28T00:31:08;3.83;;;2.50;;
830;SDS011;397;50.564;7.272;2023-02-28T00:33:35;3.60;;;2.40;;
830;SDS011;397;50.564;7.272;2023-02-28T00:36:07;3.40;;;2.03;;
830;SDS011;397;50.564;7.272;2023-02-28T00:38:37;6.03;;;2.90;;
830;SDS011;397;50.564;7.272;2023-02-28T00:41:06;3.40;;;2.50;;
830;SDS011;397;50.564;7.272;2023-02-28T00:43:34;4.00;;;2.33;;
830;SDS011;397;50.564;7.272;2023-02-28T00:46:03;4.10;;;2.47;;
830;SDS011;397;50.564;7.272;2023-02-28T00:48:30;3.20;;;2.10;;
830;SDS011;397;50.564;7.272;2023-02-28T00:50:58;6.50;;;3.00;;
830;SDS011;397;50.564;7.272;2023-02-28T00:53:26;5.30;;;3.17;;
830;SDS011;397;50.564;7.272;2023-02-28T00:55:54;2.80;;;2.00;;
830;SDS011;397;50.564;7.272;2023-02-28T00:58:21;5.47;;;2.97;;
830;SDS011;397;50.564;7.272;2023-02-28T01:00:50;5.20;;;2.50;;
830;SDS011;397;50.564;7.272;2023-02-28T01:03:19;3.57;;;2.50;;
830;SDS011;397;50.564;7.272;2023-02-28T01:05:48;3.83;;;2.13;;
830;SDS011;397;50.564;7.272;2023-02-28T01:08:16;3.93;;;2.23;;
830;SDS011;397;50.564;7.272;2023-02-28T01:10:43;2.73;;;1.97;;
830;SDS011;397;50.564;7.272;2023-02-28T01:13:11;3.30;;;2.20;;
830;SDS011;397;50.564;7.272;2023-02-28T01:15:44;3.87;;;2.07;;
830;SDS011;397;50.564;7.272;2023-02-28T01:18:12;4.60;;;2.50;;
830;SDS011;397;50.564;7.272;2023-02-28T01:20:40;4.27;;;2.57;;
830;SDS011;397;50.564;7.272;2023-02-28T01:23:07;3.90;;;2.60;;
830;SDS011;397;50.564;7.272;2023-02-28T01:25:35;5.57;;;2.40;;
830;SDS011;397;50.564;7.272;2023-02-28T01:28:03;4.40;;;2.43;;
830;SDS011;397;50.564;7.272;2023-02-28T01:30:32;3.53;;;2.20;;
830;SDS011;397;50.564;7.272;2023-02-28T01:32:59;4.40;;;2.40;;
830;SDS011;397;50.564;7.272;2023-02-28T01:35:27;4.13;;;2.23;;
830;SDS011;397;50.564;7.272;2023-02-28T01:37:54;2.80;;;2.37;;
830;SDS011;397;50.564;7.272;2023-02-28T01:40:22;4.10;;;2.37;;
830;SDS011;397;50.564;7.272;2023-02-28T01:42:49;5.70;;;2.43;;
830;SDS011;397;50.564;7.272;2023-02-28T01:48:00;4.57;;;3.07;;
830;SDS011;397;50.564;7.272;2023-02-28T01:50:30;5.83;;;2.37;;
830;SDS011;397;50.564;7.272;2023-02-28T01:53:00;4.23;;;2.60;;
830;SDS011;397;50.564;7.272;2023-02-28T01:55:30;2.93;;;2.10;;
830;SDS011;397;50.564;7.272;2023-02-28T01:58:00;3.70;;;2.30;;
830;SDS011;397;50.564;7.272;2023-02-28T02:00:30;4.90;;;2.90;;
830;SDS011;397;50.564;7.272;2023-02-28T02:02:59;4.63;;;2.50;;
830;SDS011;397;50.564;7.272;2023-02-28T02:05:30;14.03;;;3.17;;
830;SDS011;397;50.564;7.272;2023-02-28T02:08:08;3.70;;;2.60;;
830;SDS011;397;50.564;7.272;2023-02-28T02:10:41;4.30;;;2.43;;
830;SDS011;397;50.564;7.272;2023-02-28T02:18:39;3.83;;;2.30;;
830;SDS011;397;50.564;7.272;2023-02-28T02:27:13;3.30;;;2.40;;
830;SDS011;397;50.564;7.272;2023-02-28T02:29:59;4.20;;;2.23;;
830;SDS011;397;50.564;7.272;2023-02-28T02:35:46;3.00;;;2.10;;
830;SDS011;397;50.564;7.272;2023-02-28T02:41:09;5.17;;;2.60;;
830;SDS011;397;50.564;7.272;2023-02-28T02:43:44;3.30;;;1.80;;
830;SDS011;397;50.564;7.272;2023-02-28T02:46:12;4.83;;;2.37;;
830;SDS011;397;50.564;7.272;2023-02-28T02:48:40;4.60;;;2.00;;
830;SDS011;397;50.564;7.272;2023-02-28T02:51:12;4.10;;;2.40;;
830;SDS011;397;50.564;7.272;2023-02-28T02:53:46;3.30;;;2.40;;
830;SDS011;397;50.564;7.272;2023-02-28T02:56:15;3.97;;;2.33;;
830;SDS011;397;50.564;7.272;2023-02-28T02:58:46;4.33;;;2.50;;
830;SDS011;397;50.564;7.272;2023-02-28T03:01:17;3.87;;;2.57;;
830;SDS011;397;50.564;7.272;2023-02-28T03:03:50;4.80;;;2.53;;
830;SDS011;397;50.564;7.272;2023-02-28T03:06:18;5.33;;;3.47;;
830;SDS011;397;50.564;7.272;2023-02-28T03:08:45;3.07;;;1.50;;
830;SDS011;397;50.564;7.272;2023-02-28T03:11:13;3.03;;;2.50;;
830;SDS011;397;50.564;7.272;2023-02-28T03:16:29;9.53;;;3.10;;
830;SDS011;397;50.564;7.272;2023-02-28T03:30:48;5.70;;;3.13;;
830;SDS011;397;50.564;7.272;2023-02-28T03:33:19;4.20;;;2.47;;
830;SDS011;397;50.564;7.272;2023-02-28T03:35:56;3.90;;;2.63;;
830;SDS011;397;50.564;7.272;2023-02-28T03:38:25;3.97;;;2.63;;
830;SDS011;397;50.564;7.272;2023-02-28T03:40:55;4.57;;;3.10;;
830;SDS011;397;50.564;7.272;2023-02-28T03:43:28;4.43;;;2.83;;
830;SDS011;397;50.564;7.272;2023-02-28T03:45:56;5.07;;;2.67;;
830;SDS011;397;50.564;7.272;2023-02-28T03:48:30;4.37;;;2.53;;
830;SDS011;397;50.564;7.272;2023-02-28T03:50:58;4.47;;;2.83;;
830;SDS011;397;50.564;7.272;2023-02-28T03:53:29;3.70;;;2.60;;
830;SDS011;397;50.564;7.272;2023-02-28T03:56:13;3.40;;;2.73;;
830;SDS011;397;50.564;7.272;2023-02-28T04:01:27;3.70;;;2.90;;
830;SDS011;397;50.564;7.272;2023-02-28T04:03:55;4.80;;;2.70;;
830;SDS011;397;50.564;7.272;2023-02-28T04:06:23;4.70;;;2.60;;
830;SDS011;397;50.564;7.272;2023-02-28T04:08:51;4.17;;;2.70;;
830;SDS011;397;50.564;7.272;2023-02-28T04:11:21;5.23;;;2.77;;
830;SDS011;397;50.564;7.272;2023-02-28T04:13:52;4.17;;;2.70;;
830;SDS011;397;50.564;7.272;2023-02-28T04:16:19;4.10;;;2.50;;
830;SDS011;397;50.564;7.272;2023-02-28T04:18:47;5.17;;;3.33;;
830;SDS011;397;50.564;7.272;2023-02-28T04:21:14;5.13;;;2.63;;
830;SDS011;397;50.564;7.272;2023-02-28T04:23:43;7.57;;;2.90;;
830;SDS011;397;50.564;7.272;2023-02-28T04:26:11;11.70;;;2.80;;
830;SDS011;397;50.564;7.272;2023-02-28T04:28:39;3.60;;;2.47;;
830;SDS011;397;50.564;7.272;2023-02-28T04:31:06;3.57;;;2.50;;
830;SDS011;397;50.564;7.272;2023-02-28T04:33:34;6.07;;;2.70;;
830;SDS011;397;50.564;7.272;2023-02-28T04:36:06;3.77;;;2.67;;
830;SDS011;397;50.564;7.272;2023-02-28T04:38:35;4.73;;;2.90;;
830;SDS011;397;50.564;7.272;2023-02-28T04:41:04;3.40;;;2.30;;
830;SDS011;397;50.564;7.272;2023-02-28T04:43:32;4.50;;;2.93;;
830;SDS011;397;50.564;7.272;2023-02-28T04:46:00;4.97;;;2.90;;
830;SDS011;397;50.564;7.272;2023-02-28T04:48:30;4.60;;;2.60;;
830;SDS011;397;50.564;7.272;2023-02-28T04:51:02;3.70;;;2.60;;
830;SDS011;397;50.564;7.272;2023-02-28T04:53:32;6.97;;;3.70;;
830;SDS011;397;50.564;7.272;2023-02-28T04:56:00;5.53;;;3.47;;
830;SDS011;397;50.564;7.272;2023-02-28T04:58:28;4.63;;;3.00;;
830;SDS011;397;50.564;7.272;2023-02-28T05:01:02;8.33;;;3.30;;
830;SDS011;397;50.564;7.272;2023-02-28T05:03:36;5.30;;;3.40;;
830;SDS011;397;50.564;7.272;2023-02-28T05:06:06;3.10;;;2.70;;
830;SDS011;397;50.564;7.272;2023-02-28T05:08:34;3.97;;;2.60;;
830;SDS011;397;50.564;7.272;2023-02-28T05:11:02;3.63;;;3.23;;
830;SDS011;397;50.564;7.272;2023-02-28T05:13:32;4.87;;;2.70;;
830;SDS011;397;50.564;7.272;2023-02-28T05:16:01;4.87;;;3.10;;
830;SDS011;397;50.564;7.272;2023-02-28T05:18:29;6.97;;;3.37;;
830;SDS011;397;50.564;7.272;2023-02-28T05:20:56;4.63;;;3.20;;
830;SDS011;397;50.564;7.272;2023-02-28T05:23:23;4.53;;;2.90;;
830;SDS011;397;50.564;7.272;2023-02-28T05:25:51;5.17;;;2.83;;
830;SDS011;397;50.564;7.272;2023-02-28T05:28:20;6.60;;;3.23;;
830;SDS011;397;50.564;7.272;2023-02-28T05:30:47;3.93;;;2.80;;
830;SDS011;397;50.564;7.272;2023-02-28T05:33:15;4.87;;;2.57;;
830;SDS011;397;50.564;7.272;2023-02-28T05:35:43;6.00;;;3.70;;
830;SDS011;397;50.564;7.272;2023-02-28T05:38:10;3.87;;;3.10;;
830;SDS011;397;50.564;7.272;2023-02-28T05:40:38;4.20;;;3.00;;
830;SDS011;397;50.564;7.272;2023-02-28T05:43:07;3.47;;;2.80;;
830;SDS011;397;50.564;7.272;2023-02-28T05:45:37;4.30;;;2.97;;
830;SDS011;397;50.564;7.272;2023-02-28T05:48:05;4.23;;;2.60;;
830;SDS011;397;50.564;7.272;2023-02-28T05:50:33;4.40;;;3.00;;
830;SDS011;397;50.564;7.272;2023-02-28T05:53:00;4.87;;;3.07;;
830;SDS011;397;50.564;7.272;2023-02-28T05:55:28;5.97;;;3.30;;
830;SDS011;397;50.564;7.272;2023-02-28T05:57:55;4.00;;;3.27;;
830;SDS011;397;50.564;7.272;2023-02-28T06:00:23;3.20;;;2.63;;
830;SDS011;397;50.564;7.272;2023-02-28T06:02:51;5.23;;;3.30;;
830;SDS011;397;50.564;7.272;2023-02-28T06:05:20;5.73;;;2.63;;
830;SDS011;397;50.564;7.272;2023-02-28T06:07:48;4.83;;;3.13;;
830;SDS011;397;50.564;7.272;2023-02-28T06:10:15;5.37;;;3.67;;
830;SDS011;397;50.564;7.272;2023-02-28T06:12:43;5.10;;;2.70;;
830;SDS011;397;50.564;7.272;2023-02-28T06:15:14;4.90;;;3.50;;
830;SDS011;397;50.564;7.272;2023-02-28T06:17:43;6.13;;;4.03;;
830;SDS011;397;50.564;7.272;2023-02-28T06:20:11;5.43;;;2.93;;
830;SDS011;397;50.564;7.272;2023-02-28T06:22:39;4.90;;;3.90;;
830;SDS011;397;50.564;7.272;2023-02-28T06:25:07;4.10;;;3.20;;
830;SDS011;397;50.564;7.272;2023-02-28T06:27:36;5.23;;;3.50;;
830;SDS011;397;50.564;7.272;2023-02-28T06:30:04;9.07;;;4.10;;
830;SDS011;397;50.564;7.272;2023-02-28T06:32:32;6.33;;;3.10;;
830;SDS011;397;50.564;7.272;2023-02-28T06:34:59;3.80;;;3.03;;
830;SDS011;397;50.564;7.272;2023-02-28T06:37:26;6.07;;;3.07;;
830;SDS011;397;50.564;7.272;2023-02-28T06:39:54;4.57;;;3.60;;
830;SDS011;397;50.564;7.272;2023-02-28T06:42:22;6.80;;;3.40;;
830;SDS011;397;50.564;7.272;2023-02-28T06:44:55;6.23;;;4.20;;
830;SDS011;397;50.564;7.272;2023-02-28T06:47:22;4.20;;;3.80;;
830;SDS011;397;50.564;7.272;2023-02-28T06:49:50;4.93;;;3.80;;
830;SDS011;397;50.564;7.272;2023-02-28T06:52:17;5.50;;;3.20;;
830;SDS011;397;50.564;7.272;2023-02-28T06:54:45;6.67;;;4.07;;
830;SDS011;397;50.564;7.272;2023-02-28T06:57:12;5.77;;;3.93;;
830;SDS011;397;50.564;7.272;2023-02-28T06:59:40;5.90;;;3.47;;
830;SDS011;397;50.564;7.272;2023-02-28T07:02:07;5.00;;;4.10;;
830;SDS011;397;50.564;7.272;2023-02-28T07:04:35;6.00;;;4.00;;
830;SDS011;397;50.564;7.272;2023-02-28T07:07:03;4.90;;;3.33;;
830;SDS011;397;50.564;7.272;2023-02-28T07:09:30;6.97;;;4.97;;
830;SDS011;397;50.564;7.272;2023-02-28T07:11:58;4.87;;;3.73;;
830;SDS011;397;50.564;7.272;2023-02-28T07:14:26;5.83;;;5.20;;
830;SDS011;397;50.564;7.272;2023-02-28T07:16:53;9.50;;;3.77;;
830;SDS011;397;50.564;7.272;2023-02-28T07:19:21;8.73;;;5.50;;
830;SDS011;397;50.564;7.272;2023-02-28T07:21:48;8.73;;;5.33;;
830;SDS011;397;50.564;7.272;2023-02-28T07:24:16;6.60;;;4.50;;
830;SDS011;397;50.564;7.272;2023-02-28T07:26:43;6.33;;;4.47;;
830;SDS011;397;50.564;7.272;2023-02-28T07:29:11;5.03;;;4.00;;
830;SDS011;397;50.564;7.272;2023-02-28T07:31:38;5.07;;;3.90;;
830;SDS011;397;50.564;7.272;2023-02-28T07:34:06;7.97;;;3.73;;
830;SDS011;397;50.564;7.272;2023-02-28T07:36:33;6.97;;;3.30;;
830;SDS011;397;50.564;7.272;2023-02-28T07:39:01;3.43;;;2.90;;
830;SDS011;397;50.564;7.272;2023-02-28T07:41:30;7.10;;;4.03;;
830;SDS011;397;50.564;7.272;2023-02-28T07:43:59;7.73;;;4.17;;
830;SDS011;397;50.564;7.272;2023-02-28T07:46:27;5.60;;;4.23;;
830;SDS011;397;50.564;7.272;2023-02-28T07:48:56;5.63;;;4.00;;
830;SDS011;397;50.564;7.272;2023-02-28T07:51:25;5.93;;;4.70;;
830;SDS011;397;50.564;7.272;2023-02-28T07:53:52;7.47;;;5.10;;
830;SDS011;397;50.564;7.272;2023-02-28T07:56:20;5.93;;;4.17;;
830;SDS011;397;50.564;7.272;2023-02-28T07:58:47;5.87;;;4.30;;
830;SDS011;397;50.564;7.272;2023-02-28T08:01:15;7.00;;;5.20;;
830;SDS011;397;50.564;7.272;2023-02-28T08:03:43;8.97;;;4.20;;
830;SDS011;397;50.564;7.272;2023-02-28T08:06:15;4.70;;;4.07;;
830;SDS011;397;50.564;7.272;2023-02-28T08:08:43;4.73;;;3.20;;
830;SDS011;397;50.564;7.272;2023-02-28T08:11:11;4.60;;;3.73;;
830;SDS011;397;50.564;7.272;2023-02-28T08:13:38;4.77;;;3.27;;
830;SDS011;397;50.564;7.272;2023-02-28T08:16:07;5.57;;;3.93;;
830;SDS011;397;50.564;7.272;2023-02-28T08:18:35;3.27;;;2.20;;
830;SDS011;397;50.564;7.272;2023-02-28T08:21:06;5.03;;;3.17;;
830;SDS011;397;50.564;7.272;2023-02-28T08:23:35;5.00;;;3.23;;
830;SDS011;397;50.564;7.272;2023-02-28T08:26:03;3.73;;;2.73;;
830;SDS011;397;50.564;7.272;2023-02-28T08:28:30;3.90;;;2.93;;
830;SDS011;397;50.564;7.272;2023-02-28T08:30:58;3.30;;;2.20;;
830;SDS011;397;50.564;7.272;2023-02-28T08:33:26;4.23;;;2.67;;
830;SDS011;397;50.564;7.272;2023-02-28T08:35:55;4.07;;;2.80;;
830;SDS011;397;50.564;7.272;2023-02-28T08:38:23;4.60;;;2.53;;
830;SDS011;397;50.564;7.272;2023-02-28T08:40:57;4.90;;;2.70;;
830;SDS011;397;50.564;7.272;2023-02-28T08:43:27;5.90;;;3.33;;
830;SDS011;397;50.564;7.272;2023-02-28T08:45:55;3.97;;;3.37;;
830;SDS011;397;50.564;7.272;2023-02-28T08:48:23;4.50;;;3.30;;
830;SDS011;397;50.564;7.272;2023-02-28T08:50:56;3.60;;;2.70;;
830;SDS011;397;50.564;7.272;2023-02-28T08:53:25;4.00;;;3.10;;
830;SDS011;397;50.564;7.272;2023-02-28T08:56:09;4.33;;;3.40;;
830;SDS011;397;50.564;7.272;2023-02-28T08:58:38;4.77;;;3.30;;
830;SDS011;397;50.564;7.272;2023-02-28T09:01:10;4.97;;;2.90;;
830;SDS011;397;50.564;7.272;2023-02-28T09:03:49;3.63;;;2.83;;
830;SDS011;397;50.564;7.272;2023-02-28T09:06:18;5.90;;;2.40;;
830;SDS011;397;50.564;7.272;2023-02-28T09:08:47;3.50;;;2.77;;
830;SDS011;397;50.564;7.272;2023-02-28T09:11:16;3.63;;;2.20;;
830;SDS011;397;50.564;7.272;2023-02-28T09:13:45;5.70;;;2.97;;
830;SDS011;397;50.564;7.272;2023-02-28T09:16:14;4.53;;;2.83;;
830;SDS011;397;50.564;7.272;2023-02-28T09:18:42;5.00;;;2.87;;
830;SDS011;397;50.564;7.272;2023-02-28T09:21:11;4.37;;;3.00;;
830;SDS011;397;50.564;7.272;2023-02-28T09:23:41;3.93;;;2.40;;
830;SDS011;397;50.564;7.272;2023-02-28T09:26:14;4.67;;;3.30;;
830;SDS011;397;50.564;7.272;2023-02-28T09:28:43;4.73;;;3.27;;
830;SDS011;397;50.564;7.272;2023-02-28T09:31:16;4.43;;;3.27;;
830;SDS011;397;50.564;7.272;2023-02-28T09:33:46;5.07;;;3.50;;
830;SDS011;397;50.564;7.272;2023-02-28T09:36:15;4.27;;;2.90;;
830;SDS011;397;50.564;7.272;2023-02-28T09:38:43;3.47;;;2.87;;
830;SDS011;397;50.564;7.272;2023-02-28T09:41:16;6.00;;;3.07;;
830;SDS011;397;50.564;7.272;2023-02-28T09:43:55;4.40;;;3.00;;
830;SDS011;397;50.564;7.272;2023-02-28T09:49:00;5.40;;;2.77;;
830;SDS011;397;50.564;7.272;2023-02-28T09:54:13;4.40;;;2.90;;
830;SDS011;397;50.564;7.272;2023-02-28T09:56:44;5.07;;;2.40;;
830;SDS011;397;50.564;7.272;2023-02-28T09:59:18;4.50;;;3.20;;
830;SDS011;397;50.564;7.272;2023-02-28T10:04:50;6.53;;;2.97;;
830;SDS011;397;50.564;7.272;2023-02-28T10:07:30;4.70;;;2.53;;
830;SDS011;397;50.564;7.272;2023-02-28T10:10:15;3.53;;;2.43;;
830;SDS011;397;50.564;7.272;2023-02-28T10:12:51;4.63;;;2.80;;
830;SDS011;397;50.564;7.272;2023-02-28T10:15:21;3.17;;;2.80;;
830;SDS011;397;50.564;7.272;2023-02-28T10:17:54;4.23;;;2.70;;
830;SDS011;397;50.564;7.272;2023-02-28T10:20:22;5.43;;;2.77;;
830;SDS011;397;50.564;7.272;2023-02-28T10:23:01;3.53;;;2.30;;
830;SDS011;397;50.564;7.272;2023-02-28T10:25:50;4.47;;;2.97;;
830;SDS011;397;50.564;7.272;2023-02-28T10:28:24;3.53;;;2.80;;
830;SDS011;397;50.564;7.272;2023-02-28T10:30:53;5.13;;;2.90;;
830;SDS011;397;50.564;7.272;2023-02-28T10:33:23;4.10;;;2.30;;
830;SDS011;397;50.564;7.272;2023-02-28T10:35:52;3.50;;;2.40;;
830;SDS011;397;50.564;7.272;2023-02-28T10:38:28;3.70;;;2.93;;
830;SDS011;397;50.564;7.272;2023-02-28T10:41:09;5.50;;;2.57;;
830;SDS011;397;50.564;7.272;2023-02-28T10:43:40;4.13;;;2.53;;
830;SDS011;397;50.564;7.272;2023-02-28T10:48:44;3.97;;;2.50;;
830;SDS011;397;50.564;7.272;2023-02-28T10:51:16;2.27;;;1.60;;
830;SDS011;397;50.564;7.272;2023-02-28T10:53:49;3.73;;;2.70;;
830;SDS011;397;50.564;7.272;2023-02-28T10:56:23;3.30;;;2.57;;
830;SDS011;397;50.564;7.272;2023-02-28T11:01:43;3.67;;;2.73;;
830;SDS011;397;50.564;7.272;2023-02-28T11:04:31;4.60;;;2.47;;
830;SDS011;397;50.564;7.272;2023-02-28T11:06:47;3.97;;;2.50;;
830;SDS011;397;50.564;7.272;2023-02-28T11:12:01;4.80;;;2.43;;
830;SDS011;397;50.564;7.272;2023-02-28T11:14:32;3.07;;;1.77;;
830;SDS011;397;50.564;7.272;2023-02-28T11:17:20;4.23;;;2.03;;
830;SDS011;397;50.564;7.272;2023-02-28T11:19:48;4.10;;;2.87;;
830;SDS011;397;50.564;7.272;2023-02-28T11:22:22;6.07;;;3.70;;
830;SDS011;397;50.564;7.272;2023-02-28T11:25:00;4.30;;;2.03;;
830;SDS011;397;50.564;7.272;2023-02-28T11:30:00;4.70;;;2.10;;
830;SDS011;397;50.564;7.272;2023-02-28T11:32:30;3.13;;;2.07;;
830;SDS011;397;50.564;7.272;2023-02-28T11:35:02;3.77;;;2.50;;
830;SDS011;397;50.564;7.272;2023-02-28T11:37:31;4.20;;;2.60;;
830;SDS011;397;50.564;7.272;2023-02-28T11:39:59;4.43;;;2.50;;
830;SDS011;397;50.564;7.272;2023-02-28T11:42:41;8.73;;;3.57;;
830;SDS011;397;50.564;7.272;2023-02-28T11:53:49;4.70;;;3.10;;
830;SDS011;397;50.564;7.272;2023-02-28T11:56:32;4.27;;;2.90;;
830;SDS011;397;50.564;7.272;2023-02-28T11:59:18;4.20;;;3.17;;
830;SDS011;397;50.564;7.272;2023-02-28T12:07:58;5.90;;;2.90;;
830;SDS011;397;50.564;7.272;2023-02-28T12:10:37;4.73;;;2.53;;
830;SDS011;397;50.564;7.272;2023-02-28T12:13:11;3.27;;;2.73;;
830;SDS011;397;50.564;7.272;2023-02-28T12:15:50;4.30;;;2.90;;
830;SDS011;397;50.564;7.272;2023-02-28T12:18:42;3.73;;;2.33;;
830;SDS011;397;50.564;7.272;2023-02-28T12:21:20;4.90;;;3.73;;
830;SDS011;397;50.564;7.272;2023-02-28T12:24:02;4.03;;;2.60;;
830;SDS011;397;50.564;7.272;2023-02-28T12:26:36;3.60;;;2.47;;
830;SDS011;397;50.564;7.272;2023-02-28T12:29:23;3.80;;;2.90;;
830;SDS011;397;50.564;7.272;2023-02-28T12:34:38;3.77;;;3.20;;
830;SDS011;397;50.564;7.272;2023-02-28T12:37:09;3.03;;;2.60;;
830;SDS011;397;50.564;7.272;2023-02-28T12:39:42;6.30;;;3.00;;
830;SDS011;397;50.564;7.272;2023-02-28T12:42:12;4.30;;;3.20;;
830;SDS011;397;50.564;7.272;2023-02-28T12:45:01;3.40;;;2.57;;
830;SDS011;397;50.564;7.272;2023-02-28T12:47:32;4.10;;;2.80;;
830;SDS011;397;50.564;7.272;2023-02-28T12:50:07;3.70;;;2.27;;
830;SDS011;397;50.564;7.272;2023-02-28T12:52:35;6.10;;;2.70;;
830;SDS011;397;50.564;7.272;2023-02-28T13:06:34;3.00;;;2.33;;
830;SDS011;397;50.564;7.272;2023-02-28T13:09:07;4.23;;;2.93;;
830;SDS011;397;50.564;7.272;2023-02-28T13:11:43;4.47;;;2.80;;
830;SDS011;397;50.564;7.272;2023-02-28T13:14:26;4.17;;;2.93;;
830;SDS011;397;50.564;7.272;2023-02-28T13:19:27;4.73;;;2.60;;
830;SDS011;397;50.564;7.272;2023-02-28T13:21:58;4.43;;;2.80;;
830;SDS011;397;50.564;7.272;2023-02-28T13:24:47;3.60;;;2.97;;
830;SDS011;397;50.564;7.272;2023-02-28T13:27:21;4.13;;;3.00;;
830;SDS011;397;50.564;7.272;2023-02-28T13:33:21;4.93;;;2.70;;
830;SDS011;397;50.564;7.272;2023-02-28T13:38:56;3.63;;;3.10;;
830;SDS011;397;50.564;7.272;2023-02-28T13:44:05;4.50;;;3.27;;
830;SDS011;397;50.564;7.272;2023-02-28T13:54:58;4.17;;;3.10;;
830;SDS011;397;50.564;7.272;2023-02-28T13:57:47;4.10;;;3.07;;
830;SDS011;397;50.564;7.272;2023-02-28T14:03:31;6.03;;;4.03;;
830;SDS011;397;50.564;7.272;2023-02-28T14:06:16;3.87;;;2.60;;
830;SDS011;397;50.564;7.272;2023-02-28T14:09:01;3.67;;;3.10;;
830;SDS011;397;50.564;7.272;2023-02-28T14:11:36;5.53;;;3.40;;
830;SDS011;397;50.564;7.272;2023-02-28T14:14:06;4.03;;;3.40;;
830;SDS011;397;50.564;7.272;2023-02-28T14:19:13;4.50;;;3.20;;
830;SDS011;397;50.564;7.272;2023-02-28T14:21:47;4.70;;;3.57;;
830;SDS011;397;50.564;7.272;2023-02-28T14:30:15;5.33;;;4.80;;
830;SDS011;397;50.564;7.272;2023-02-28T14:33:03;5.63;;;4.67;;
830;SDS011;397;50.564;7.272;2023-02-28T14:35:50;3.63;;;3.20;;
830;SDS011;397;50.564;7.272;2023-02-28T14:38:19;6.00;;;4.00;;
830;SDS011;397;50.564;7.272;2023-02-28T14:40:47;6.07;;;3.60;;
830;SDS011;397;50.564;7.272;2023-02-28T14:43:21;6.73;;;3.30;;
830;SDS011;397;50.564;7.272;2023-02-28T14:45:54;4.23;;;3.20;;
830;SDS011;397;50.564;7.272;2023-02-28T14:48:27;5.67;;;4.10;;
830;SDS011;397;50.564;7.272;2023-02-28T14:51:00;5.17;;;4.40;;
830;SDS011;397;50.564;7.272;2023-02-28T14:53:30;5.50;;;4.50;;
830;SDS011;397;50.564;7.272;2023-02-28T14:55:56;4.83;;;4.13;;
830;SDS011;397;50.564;7.272;2023-02-28T14:58:25;6.57;;;4.20;;
830;SDS011;397;50.564;7.272;2023-02-28T15:00:55;6.27;;;4.77;;
830;SDS011;397;50.564;7.272;2023-02-28T15:03:34;5.87;;;4.97;;
830;SDS011;397;50.564;7.272;2023-02-28T15:06:04;5.30;;;4.10;;
830;SDS011;397;50.564;7.272;2023-02-28T15:08:34;6.60;;;5.07;;
830;SDS011;397;50.564;7.272;2023-02-28T15:11:02;6.43;;;4.70;;
830;SDS011;397;50.564;7.272;2023-02-28T15:18:47;5.43;;;4.93;;
830;SDS011;397;50.564;7.272;2023-02-28T15:21:18;5.07;;;4.47;;
830;SDS011;397;50.564;7.272;2023-02-28T15:23:50;6.53;;;4.70;;
830;SDS011;397;50.564;7.272;2023-02-28T15:26:20;5.77;;;4.17;;
830;SDS011;397;50.564;7.272;2023-02-28T15:28:58;6.20;;;4.67;;
830;SDS011;397;50.564;7.272;2023-02-28T15:31:28;4.53;;;3.77;;
830;SDS011;397;50.564;7.272;2023-02-28T15:34:05;4.90;;;4.40;;
830;SDS011;397;50.564;7.272;2023-02-28T15:36:33;5.13;;;4.27;;
830;SDS011;397;50.564;7.272;2023-02-28T15:39:03;4.90;;;4.10;;
830;SDS011;397;50.564;7.272;2023-02-28T15:41:36;6.70;;;4.57;;
830;SDS011;397;50.564;7.272;2023-02-28T15:44:23;5.97;;;4.50;;
830;SDS011;397;50.564;7.272;2023-02-28T15:46:55;5.03;;;4.53;;
830;SDS011;397;50.564;7.272;2023-02-28T15:49:27;4.80;;;4.30;;
830;SDS011;397;50.564;7.272;2023-02-28T15:51:56;5.20;;;4.10;;
830;SDS011;397;50.564;7.272;2023-02-28T15:54:30;4.90;;;4.40;;
830;SDS011;397;50.564;7.272;2023-02-28T15:57:03;5.83;;;4.43;;
830;SDS011;397;50.564;7.272;2023-02-28T15:59:35;5.63;;;3.90;;
830;SDS011;397;50.564;7.272;2023-02-28T16:02:12;5.77;;;3.60;;
830;SDS011;397;50.564;7.272;2023-02-28T16:04:56;6.47;;;4.63;;
830;SDS011;397;50.564;7.272;2023-02-28T16:07:31;4.97;;;4.40;;
830;SDS011;397;50.564;7.272;2023-02-28T16:09:59;7.50;;;4.87;;
830;SDS011;397;50.564;7.272;2023-02-28T16:12:28;6.17;;;4.33;;
830;SDS011;397;50.564;7.272;2023-02-28T16:14:59;5.20;;;4.67;;
830;SDS011;397;50.564;7.272;2023-02-28T16:17:29;5.30;;;4.40;;
830;SDS011;397;50.564;7.272;2023-02-28T16:20:05;5.83;;;4.60;;
830;SDS011;397;50.564;7.272;2023-02-28T16:22:42;5.53;;;4.60;;
830;SDS011;397;50.564;7.272;2023-02-28T16:25:16;8.37;;;4.60;;
830;SDS011;397;50.564;7.272;2023-02-28T16:27:50;7.33;;;5.50;;
830;SDS011;397;50.564;7.272;2023-02-28T16:30:20;4.57;;;3.83;;
830;SDS011;397;50.564;7.272;2023-02-28T16:32:50;6.50;;;4.13;;
830;SDS011;397;50.564;7.272;2023-02-28T16:35:20;5.00;;;4.33;;
830;SDS011;397;50.564;7.272;2023-02-28T16:37:50;6.37;;;3.93;;
830;SDS011;397;50.564;7.272;2023-02-28T16:40:19;5.13;;;3.53;;
830;SDS011;397;50.564;7.272;2023-02-28T16:42:49;5.50;;;4.10;;
830;SDS011;397;50.564;7.272;2023-02-28T16:45:24;6.90;;;5.07;;
830;SDS011;397;50.564;7.272;2023-02-28T16:47:52;5.23;;;4.10;;
830;SDS011;397;50.564;7.272;2023-02-28T16:50:21;8.33;;;5.57;;
830;SDS011;397;50.564;7.272;2023-02-28T16:52:51;8.07;;;4.50;;
830;SDS011;397;50.564;7.272;2023-02-28T16:55:20;5.47;;;4.60;;
830;SDS011;397;50.564;7.272;2023-02-28T16:57:53;5.10;;;4.07;;
830;SDS011;397;50.564;7.272;2023-02-28T17:00:26;6.03;;;4.60;;
830;SDS011;397;50.564;7.272;2023-02-28T17:02:56;4.73;;;4.23;;
830;SDS011;397;50.564;7.272;2023-02-28T17:05:26;5.63;;;4.20;;
830;SDS011;397;50.564;7.272;2023-02-28T17:07:56;5.27;;;4.77;;
830;SDS011;397;50.564;7.272;2023-02-28T17:10:25;5.87;;;4.97;;
830;SDS011;397;50.564;7.272;2023-02-28T17:12:53;6.37;;;5.20;;
830;SDS011;397;50.564;7.272;2023-02-28T17:15:20;7.13;;;5.10;;
830;SDS011;397;50.564;7.272;2023-02-28T17:17:48;6.43;;;5.67;;
830;SDS011;397;50.564;7.272;2023-02-28T17:20:20;5.80;;;4.57;;
830;SDS011;397;50.564;7.272;2023-02-28T17:22:49;6.23;;;5.13;;
830;SDS011;397;50.564;7.272;2023-02-28T17:25:17;10.60;;;5.67;;
830;SDS011;397;50.564;7.272;2023-02-28T17:27:45;8.43;;;4.57;;
830;SDS011;397;50.564;7.272;2023-02-28T17:30:23;5.43;;;4.53;;
830;SDS011;397;50.564;7.272;2023-02-28T17:32:55;4.73;;;4.03;;
830;SDS011;397;50.564;7.272;2023-02-28T17:35:23;7.10;;;5.00;;
830;SDS011;397;50.564;7.272;2023-02-28T17:37:52;6.97;;;4.70;;
830;SDS011;397;50.564;7.272;2023-02-28T17:40:21;8.60;;;5.77;;
830;SDS011;397;50.564;7.272;2023-02-28T17:42:49;10.87;;;6.57;;
830;SDS011;397;50.564;7.272;2023-02-28T17:45:22;11.43;;;7.07;;
830;SDS011;397;50.564;7.272;2023-02-28T17:47:50;8.90;;;8.00;;
830;SDS011;397;50.564;7.272;2023-02-28T17:50:18;10.97;;;7.93;;
830;SDS011;397;50.564;7.272;2023-02-28T17:52:48;10.93;;;8.27;;
830;SDS011;397;50.564;7.272;2023-02-28T17:55:16;15.53;;;8.83;;
830;SDS011;397;50.564;7.272;2023-02-28T17:57:44;14.43;;;8.30;;
830;SDS011;397;50.564;7.272;2023-02-28T18:00:13;11.50;;;8.50;;
830;SDS011;397;50.564;7.272;2023-02-28T18:02:43;17.77;;;12.20;;
830;SDS011;397;50.564;7.272;2023-02-28T18:05:11;25.63;;;15.17;;
830;SDS011;397;50.564;7.272;2023-02-28T18:07:38;31.10;;;17.13;;
830;SDS011;397;50.564;7.272;2023-02-28T18:10:07;31.17;;;18.40;;